METAR Data
IDs: Format: Raw Decoded Include TAF

Data at: 1310 UTC 26 Feb 2021

ESTA 261250Z 27018KT 9999 FEW010 SCT020 06/03 Q1022